Time;durP1;ratioP1;P1;durP2;ratioP2;P2;SDS_P1;SDS_P2;PMS_P1;PMS_P2;Temp;Humidity;BMP_temperature;BMP_pressure;BME280_temperature;BME280_humidity;BME280_pressure;Samples;Min_cycle;Max_cycle;Signal;HPM_P1;HPM_P2
2023/10/03 00:02:14;;;;;;;27.88;12.68;;;;;;;;;;5013279;28;20248;-66
2023/10/03 00:04:40;;;;;;;29.55;12.10;;;;;;;;;;5007686;28;20304;-67
2023/10/03 00:07:05;;;;;;;37.38;13.57;;;;;;;;;;5009921;28;20591;-68
2023/10/03 00:09:32;;;;;;;28.33;11.50;;;;;;;;;;5012189;28;20711;-67
2023/10/03 00:11:57;;;;;;;25.38;12.00;;;;;;;;;;5011085;28;20344;-66
2023/10/03 00:14:22;;;;;;;27.50;12.60;;;;;;;;;;5010142;28;20265;-67
2023/10/03 00:16:48;;;;;;;29.55;13.77;;;;;;;;;;5010955;28;20193;-66
2023/10/03 00:19:13;;;;;;;28.42;12.75;;;;;;;;;;5012018;28;20206;-66
2023/10/03 00:21:38;;;;;;;27.40;12.10;;;;;;;;;;5013352;28;20241;-66
2023/10/03 00:24:06;;;;;;;28.73;12.18;;;;;;;;;;5010005;28;20206;-67
2023/10/03 00:26:32;;;;;;;28.90;12.45;;;;;;;;;;5012018;28;20256;-67
2023/10/03 00:28:58;;;;;;;29.50;12.45;;;;;;;;;;5012467;28;20218;-68
2023/10/03 00:31:23;;;;;;;28.77;13.27;;;;;;;;;;5012367;28;20183;-67
2023/10/03 00:33:49;;;;;;;25.90;12.38;;;;;;;;;;5012475;28;20194;-67
2023/10/03 00:36:23;;;;;;;31.13;13.43;;;;;;;;;;5012837;28;20168;-67
2023/10/03 00:38:50;;;;;;;31.25;12.32;;;;;;;;;;5009088;28;20215;-67
2023/10/03 00:41:15;;;;;;;31.55;13.82;;;;;;;;;;5008343;28;20179;-67
2023/10/03 00:43:53;;;;;;;26.08;12.05;;;;;;;;;;5005902;28;20262;-67
2023/10/03 00:46:19;;;;;;;31.52;13.57;;;;;;;;;;5011874;28;20178;-66
2023/10/03 00:48:47;;;;;;;32.45;13.93;;;;;;;;;;5010830;28;20721;-67
2023/10/03 00:51:12;;;;;;;31.23;14.10;;;;;;;;;;5012351;28;20168;-67
2023/10/03 00:53:38;;;;;;;31.48;13.82;;;;;;;;;;5012038;28;20174;-67
2023/10/03 00:56:08;;;;;;;31.58;13.70;;;;;;;;;;5007388;28;20278;-67
2023/10/03 00:58:35;;;;;;;28.58;12.88;;;;;;;;;;5009436;28;20506;-66
2023/10/03 01:01:01;;;;;;;31.10;13.65;;;;;;;;;;5007526;28;20609;-66
2023/10/03 01:03:30;;;;;;;28.33;12.82;;;;;;;;;;5008192;28;20186;-66
2023/10/03 01:05:59;;;;;;;32.50;13.70;;;;;;;;;;5008805;28;20191;-67
2023/10/03 01:08:29;;;;;;;29.13;13.27;;;;;;;;;;5008180;28;20210;-67
2023/10/03 01:10:55;;;;;;;28.73;13.77;;;;;;;;;;5009858;28;20178;-67
2023/10/03 01:13:20;;;;;;;28.13;12.98;;;;;;;;;;5006297;28;20167;-66
2023/10/03 01:15:50;;;;;;;27.67;12.70;;;;;;;;;;5010254;28;20217;-68
2023/10/03 01:18:18;;;;;;;32.00;14.48;;;;;;;;;;5011403;28;20207;-67
2023/10/03 01:20:48;;;;;;;36.70;15.02;;;;;;;;;;5010796;28;20171;-67
2023/10/03 01:23:15;;;;;;;33.05;13.32;;;;;;;;;;5010422;28;20179;-67
2023/10/03 01:25:44;;;;;;;28.60;14.18;;;;;;;;;;5010591;28;20179;-67
2023/10/03 01:28:09;;;;;;;34.03;14.23;;;;;;;;;;5010147;28;20206;-66
2023/10/03 01:30:36;;;;;;;36.45;14.43;;;;;;;;;;5010927;28;20176;-67
2023/10/03 01:33:02;;;;;;;32.03;14.32;;;;;;;;;;5007738;28;20186;-66
2023/10/03 01:35:27;;;;;;;33.78;14.40;;;;;;;;;;5012705;28;20175;-66
2023/10/03 01:37:52;;;;;;;29.05;12.52;;;;;;;;;;5010138;28;20201;-67
2023/10/03 01:40:18;;;;;;;34.00;14.23;;;;;;;;;;5010096;28;20669;-66
2023/10/03 01:42:47;;;;;;;33.42;14.77;;;;;;;;;;5011772;28;20175;-67
2023/10/03 01:45:17;;;;;;;32.15;12.95;;;;;;;;;;5009282;28;20593;-67
2023/10/03 01:47:45;;;;;;;30.88;13.68;;;;;;;;;;5010713;28;20179;-68
2023/10/03 01:50:11;;;;;;;29.85;13.00;;;;;;;;;;5008988;28;20205;-68
2023/10/03 01:52:37;;;;;;;35.47;14.77;;;;;;;;;;5007860;28;20167;-67
2023/10/03 01:55:03;;;;;;;32.17;13.18;;;;;;;;;;5010029;28;20217;-67
2023/10/03 01:57:28;;;;;;;33.47;14.60;;;;;;;;;;5009954;28;20179;-67
2023/10/03 01:59:55;;;;;;;30.08;13.23;;;;;;;;;;5008665;28;20193;-67
2023/10/03 02:02:20;;;;;;;32.22;13.30;;;;;;;;;;5007827;28;20234;-68
2023/10/03 02:04:45;;;;;;;29.10;12.40;;;;;;;;;;5006868;28;20186;-67
2023/10/03 02:07:11;;;;;;;28.83;12.15;;;;;;;;;;5010850;28;20657;-67
2023/10/03 02:09:37;;;;;;;28.23;12.75;;;;;;;;;;5007270;28;20514;-68
2023/10/03 02:12:02;;;;;;;33.58;13.27;;;;;;;;;;5007587;28;20741;-67
2023/10/03 02:14:29;;;;;;;26.92;13.18;;;;;;;;;;5008193;28;20229;-67
2023/10/03 02:16:54;;;;;;;28.83;13.43;;;;;;;;;;5009961;28;20184;-67
2023/10/03 02:19:20;;;;;;;32.33;13.27;;;;;;;;;;5009945;28;20289;-67
2023/10/03 02:21:46;;;;;;;24.42;12.15;;;;;;;;;;5008286;28;20179;-67
2023/10/03 02:24:13;;;;;;;27.58;11.80;;;;;;;;;;5008259;28;20637;-67
2023/10/03 02:26:41;;;;;;;33.08;13.55;;;;;;;;;;5010176;28;20633;-67
2023/10/03 02:29:06;;;;;;;28.27;12.50;;;;;;;;;;5006217;28;20219;-67
2023/10/03 02:31:33;;;;;;;28.00;11.90;;;;;;;;;;5010947;28;20177;-67
2023/10/03 02:33:58;;;;;;;26.83;12.25;;;;;;;;;;5008224;28;20604;-67
2023/10/03 02:36:24;;;;;;;27.95;12.52;;;;;;;;;;5008302;28;20191;-67
2023/10/03 02:38:49;;;;;;;25.10;11.40;;;;;;;;;;5009946;28;20206;-67
2023/10/03 02:41:15;;;;;;;24.52;10.63;;;;;;;;;;5024973;28;20266;-67
2023/10/03 02:43:43;;;;;;;23.70;11.02;;;;;;;;;;5009293;28;20206;-67
2023/10/03 02:46:12;;;;;;;24.98;11.02;;;;;;;;;;5008408;28;20190;-67
2023/10/03 02:48:37;;;;;;;24.52;11.02;;;;;;;;;;5006191;28;20348;-67
2023/10/03 02:51:02;;;;;;;26.05;11.55;;;;;;;;;;5009597;28;20696;-67
2023/10/03 02:53:27;;;;;;;22.58;10.57;;;;;;;;;;5008582;28;20183;-68
2023/10/03 02:55:54;;;;;;;26.35;11.07;;;;;;;;;;5008769;28;20187;-67
2023/10/03 02:58:20;;;;;;;24.70;11.40;;;;;;;;;;5008469;28;20210;-66
2023/10/03 03:00:49;;;;;;;29.30;10.50;;;;;;;;;;5002575;28;20182;-67
2023/10/03 03:03:14;;;;;;;23.60;10.10;;;;;;;;;;5010477;28;20269;-67
2023/10/03 03:05:41;;;;;;;22.65;9.93;;;;;;;;;;5005139;28;20253;-67
2023/10/03 03:08:21;;;;;;;25.30;10.38;;;;;;;;;;5008935;28;20214;-66
2023/10/03 03:10:57;;;;;;;22.05;10.20;;;;;;;;;;5004893;28;20167;-66
2023/10/03 03:13:31;;;;;;;18.30;9.15;;;;;;;;;;5009467;28;20163;-67
2023/10/03 03:15:59;;;;;;;20.77;9.45;;;;;;;;;;5007802;28;20179;-67
2023/10/03 03:18:25;;;;;;;17.40;8.10;;;;;;;;;;5009277;28;20199;-66
2023/10/03 03:20:57;;;;;;;19.60;7.88;;;;;;;;;;5007500;28;20221;-67
2023/10/03 03:23:23;;;;;;;16.02;7.60;;;;;;;;;;5009207;28;20258;-66
2023/10/03 03:25:57;;;;;;;12.15;6.35;;;;;;;;;;5005456;28;20662;-66
2023/10/03 03:28:23;;;;;;;13.98;6.22;;;;;;;;;;5005717;28;20756;-66
2023/10/03 03:30:56;;;;;;;13.48;6.43;;;;;;;;;;5008473;28;20182;-66
2023/10/03 03:33:25;;;;;;;11.10;5.43;;;;;;;;;;5009215;28;20201;-66
2023/10/03 03:35:50;;;;;;;18.05;7.68;;;;;;;;;;5008759;28;20259;-67
2023/10/03 03:38:15;;;;;;;12.13;5.93;;;;;;;;;;5024939;23;20233;-66
2023/10/03 03:40:47;;;;;;;12.55;5.80;;;;;;;;;;5029023;28;20209;-69
2023/10/03 03:43:16;;;;;;;14.38;5.72;;;;;;;;;;5032476;28;20221;-66
2023/10/03 03:45:42;;;;;;;9.85;4.70;;;;;;;;;;5028687;28;20618;-67
2023/10/03 03:48:09;;;;;;;12.30;6.32;;;;;;;;;;5024939;28;20296;-67
2023/10/03 03:50:35;;;;;;;10.70;4.63;;;;;;;;;;5009896;28;20233;-67
2023/10/03 03:53:02;;;;;;;10.95;5.30;;;;;;;;;;5012589;28;20515;-69
2023/10/03 03:55:29;;;;;;;11.35;5.18;;;;;;;;;;5011937;28;20534;-66
2023/10/03 03:57:56;;;;;;;11.10;6.20;;;;;;;;;;5009355;28;20552;-67
2023/10/03 04:00:22;;;;;;;9.68;5.20;;;;;;;;;;5011940;28;20508;-66
2023/10/03 04:02:48;;;;;;;14.27;5.38;;;;;;;;;;5009324;28;20199;-66
2023/10/03 04:05:16;;;;;;;14.20;5.40;;;;;;;;;;5008622;28;20207;-69
2023/10/03 04:07:41;;;;;;;14.65;5.38;;;;;;;;;;5008543;28;20274;-67
2023/10/03 04:10:09;;;;;;;10.82;4.15;;;;;;;;;;5010869;28;20289;-68
2023/10/03 04:12:41;;;;;;;11.88;4.95;;;;;;;;;;5012561;28;20229;-67
2023/10/03 04:15:12;;;;;;;9.93;4.40;;;;;;;;;;5011885;28;20668;-67
2023/10/03 04:17:42;;;;;;;9.70;5.10;;;;;;;;;;5011613;28;20229;-67
2023/10/03 04:20:21;;;;;;;16.60;5.43;;;;;;;;;;5011892;28;20555;-66
2023/10/03 04:22:50;;;;;;;13.82;4.68;;;;;;;;;;5011969;28;20643;-66
2023/10/03 04:25:15;;;;;;;10.43;4.53;;;;;;;;;;5008333;28;20175;-66
2023/10/03 04:27:41;;;;;;;11.93;4.88;;;;;;;;;;5011291;28;20218;-66
2023/10/03 04:30:09;;;;;;;15.95;5.45;;;;;;;;;;5011442;28;20203;-66
2023/10/03 04:32:35;;;;;;;15.70;5.05;;;;;;;;;;5009936;28;20194;-67
2023/10/03 04:35:00;;;;;;;13.30;4.95;;;;;;;;;;5013346;28;20213;-66
2023/10/03 04:37:25;;;;;;;21.00;5.32;;;;;;;;;;5010959;28;20195;-66
2023/10/03 04:39:51;;;;;;;13.13;5.20;;;;;;;;;;5011592;28;20339;-67
2023/10/03 04:42:16;;;;;;;12.25;5.25;;;;;;;;;;5011250;28;20237;-66
2023/10/03 04:44:41;;;;;;;13.23;4.43;;;;;;;;;;5006188;28;20228;-68
2023/10/03 04:47:11;;;;;;;8.13;4.25;;;;;;;;;;5013905;28;20560;-67
2023/10/03 04:49:37;;;;;;;14.20;4.57;;;;;;;;;;5006948;28;20214;-67
2023/10/03 04:52:03;;;;;;;11.95;4.88;;;;;;;;;;5008226;28;20234;-67
2023/10/03 04:54:29;;;;;;;9.93;4.63;;;;;;;;;;5009571;28;20668;-67
2023/10/03 04:56:54;;;;;;;10.52;4.40;;;;;;;;;;5009146;28;20195;-67
2023/10/03 04:59:20;;;;;;;10.57;4.60;;;;;;;;;;5008714;28;20195;-67
2023/10/03 05:01:46;;;;;;;10.52;4.10;;;;;;;;;;5011760;28;20504;-67
2023/10/03 05:04:12;;;;;;;11.13;4.43;;;;;;;;;;5011773;28;20303;-68
2023/10/03 05:06:37;;;;;;;7.72;4.65;;;;;;;;;;5007943;28;20242;-66
2023/10/03 05:09:04;;;;;;;9.45;3.80;;;;;;;;;;5006272;28;20214;-67
2023/10/03 05:11:30;;;;;;;6.28;2.78;;;;;;;;;;5013090;28;20179;-68
2023/10/03 05:13:55;;;;;;;10.10;3.63;;;;;;;;;;5011809;28;20178;-67
2023/10/03 05:16:20;;;;;;;11.82;4.00;;;;;;;;;;5009162;28;20185;-68
2023/10/03 05:18:46;;;;;;;9.70;3.72;;;;;;;;;;5009804;28;20199;-68
2023/10/03 05:21:13;;;;;;;8.82;3.30;;;;;;;;;;5010153;28;20187;-67
2023/10/03 05:23:41;;;;;;;8.93;3.33;;;;;;;;;;5010622;28;20178;-66
2023/10/03 05:26:07;;;;;;;7.63;3.08;;;;;;;;;;5009031;28;20190;-69
2023/10/03 05:28:34;;;;;;;8.98;4.53;;;;;;;;;;5010826;28;20712;-68
2023/10/03 05:30:59;;;;;;;8.30;3.08;;;;;;;;;;5005460;28;20189;-68
2023/10/03 05:33:24;;;;;;;9.88;3.42;;;;;;;;;;5008591;28;20179;-68
2023/10/03 05:35:49;;;;;;;5.47;2.97;;;;;;;;;;5009762;28;20550;-68
2023/10/03 05:38:15;;;;;;;11.10;4.30;;;;;;;;;;5010692;28;20219;-68
2023/10/03 05:40:42;;;;;;;8.07;3.35;;;;;;;;;;5008530;28;20175;-68
2023/10/03 05:43:08;;;;;;;18.08;5.22;;;;;;;;;;5006482;28;20222;-68
2023/10/03 05:45:37;;;;;;;7.88;3.80;;;;;;;;;;5006029;28;20226;-68
2023/10/03 05:48:04;;;;;;;9.32;3.80;;;;;;;;;;5005738;28;20644;-68
2023/10/03 05:50:29;;;;;;;9.35;4.05;;;;;;;;;;5007037;28;20213;-67
2023/10/03 05:52:55;;;;;;;7.57;3.45;;;;;;;;;;5007266;28;20174;-68
2023/10/03 05:55:21;;;;;;;7.18;3.60;;;;;;;;;;5005693;28;20179;-68
2023/10/03 05:57:46;;;;;;;6.15;3.75;;;;;;;;;;5005642;28;20225;-68
2023/10/03 06:00:16;;;;;;;10.20;3.90;;;;;;;;;;5005798;28;20237;-68
2023/10/03 06:02:43;;;;;;;8.52;3.85;;;;;;;;;;5008381;28;20480;-68
2023/10/03 06:05:08;;;;;;;9.23;3.03;;;;;;;;;;5006047;28;20183;-67
2023/10/03 06:07:36;;;;;;;10.68;3.35;;;;;;;;;;5009765;28;20769;-67
2023/10/03 06:10:04;;;;;;;8.20;3.60;;;;;;;;;;5011227;28;20198;-67
2023/10/03 06:12:29;;;;;;;11.38;3.75;;;;;;;;;;5010983;28;20163;-67
2023/10/03 06:14:54;;;;;;;10.60;3.70;;;;;;;;;;5011153;28;20171;-67
2023/10/03 06:17:20;;;;;;;8.55;3.45;;;;;;;;;;5011104;28;20190;-66
2023/10/03 06:19:45;;;;;;;12.48;4.30;;;;;;;;;;5004532;28;20202;-66
2023/10/03 06:22:12;;;;;;;8.05;3.65;;;;;;;;;;5005367;28;20190;-67
2023/10/03 06:24:38;;;;;;;10.25;3.42;;;;;;;;;;5010468;28;20256;-67
2023/10/03 06:27:05;;;;;;;8.07;3.63;;;;;;;;;;5011747;28;20213;-70
2023/10/03 06:29:30;;;;;;;9.10;4.72;;;;;;;;;;5010211;28;20761;-68
2023/10/03 06:31:55;;;;;;;8.75;3.65;;;;;;;;;;5010067;28;20267;-67
2023/10/03 06:34:21;;;;;;;11.10;4.40;;;;;;;;;;5008363;28;20641;-67
2023/10/03 06:36:47;;;;;;;8.65;3.55;;;;;;;;;;5006464;28;20179;-68
2023/10/03 06:39:12;;;;;;;11.55;3.55;;;;;;;;;;5009179;28;20716;-67
2023/10/03 06:41:38;;;;;;;8.45;2.70;;;;;;;;;;5008844;28;20650;-67
2023/10/03 06:44:04;;;;;;;8.27;3.15;;;;;;;;;;5006111;28;20623;-67
2023/10/03 06:46:30;;;;;;;6.47;2.63;;;;;;;;;;4999553;28;20183;-67
2023/10/03 06:48:55;;;;;;;6.90;2.53;;;;;;;;;;4996835;28;20210;-67
2023/10/03 06:51:20;;;;;;;7.13;2.40;;;;;;;;;;5003792;28;20209;-66
2023/10/03 06:53:47;;;;;;;3.72;1.88;;;;;;;;;;5008991;28;20238;-67
2023/10/03 06:56:12;;;;;;;5.38;1.75;;;;;;;;;;5010995;28;20175;-67
2023/10/03 06:58:37;;;;;;;5.65;1.60;;;;;;;;;;5007897;28;20214;-67
2023/10/03 07:01:03;;;;;;;3.67;1.58;;;;;;;;;;5009516;28;20193;-67
2023/10/03 07:03:29;;;;;;;6.38;1.58;;;;;;;;;;5009156;28;20650;-67
2023/10/03 07:05:55;;;;;;;2.55;1.50;;;;;;;;;;5010803;28;20194;-67
2023/10/03 07:08:20;;;;;;;3.55;1.65;;;;;;;;;;5007216;28;20226;-66
2023/10/03 07:10:46;;;;;;;4.97;1.40;;;;;;;;;;5013207;28;20565;-67
2023/10/03 07:13:12;;;;;;;9.60;2.05;;;;;;;;;;5011129;28;20634;-66
2023/10/03 07:15:39;;;;;;;3.47;1.45;;;;;;;;;;5008543;28;20183;-67
2023/10/03 07:18:04;;;;;;;3.25;1.75;;;;;;;;;;5012988;28;20202;-67
2023/10/03 07:20:30;;;;;;;7.72;1.77;;;;;;;;;;5013088;28;20182;-67
2023/10/03 07:22:55;;;;;;;6.88;2.35;;;;;;;;;;5015021;28;20175;-67
2023/10/03 07:25:20;;;;;;;10.30;1.90;;;;;;;;;;5014161;28;20171;-67
2023/10/03 07:27:48;;;;;;;4.53;1.63;;;;;;;;;;5013996;28;20686;-67
2023/10/03 07:30:14;;;;;;;5.90;1.75;;;;;;;;;;5010095;28;20685;-67
2023/10/03 07:32:39;;;;;;;4.70;1.30;;;;;;;;;;5013534;28;20187;-66
2023/10/03 07:35:06;;;;;;;4.75;1.58;;;;;;;;;;5014439;28;20178;-67
2023/10/03 07:37:33;;;;;;;4.38;1.88;;;;;;;;;;5014519;28;20544;-67
2023/10/03 07:39:59;;;;;;;4.97;1.75;;;;;;;;;;5013965;28;20634;-67
2023/10/03 07:42:24;;;;;;;5.10;1.63;;;;;;;;;;5013067;28;20183;-66
2023/10/03 07:44:52;;;;;;;6.13;1.95;;;;;;;;;;5013587;28;20171;-66
2023/10/03 07:47:18;;;;;;;4.53;1.40;;;;;;;;;;5014241;28;20658;-67
2023/10/03 07:49:43;;;;;;;5.35;1.27;;;;;;;;;;5012042;28;20219;-67
2023/10/03 07:52:08;;;;;;;8.55;1.73;;;;;;;;;;5013533;28;20181;-68
2023/10/03 07:54:36;;;;;;;5.40;1.42;;;;;;;;;;5012508;28;20258;-67
2023/10/03 07:57:05;;;;;;;2.35;0.80;;;;;;;;;;5013985;28;20186;-68
2023/10/03 07:59:30;;;;;;;5.72;2.03;;;;;;;;;;5013267;28;20574;-67
2023/10/03 08:01:55;;;;;;;3.45;1.00;;;;;;;;;;5016227;28;20245;-67
2023/10/03 08:04:21;;;;;;;4.95;1.15;;;;;;;;;;5015876;28;20194;-66
2023/10/03 08:06:46;;;;;;;3.25;0.95;;;;;;;;;;5011108;28;20183;-67
2023/10/03 08:09:11;;;;;;;2.92;1.08;;;;;;;;;;5012726;28;20213;-66
2023/10/03 08:11:36;;;;;;;4.85;1.00;;;;;;;;;;5013017;28;20206;-66
2023/10/03 08:14:17;;;;;;;5.95;1.33;;;;;;;;;;5013345;28;20209;-66
2023/10/03 08:16:43;;;;;;;4.47;1.40;;;;;;;;;;5012134;28;20268;-67
2023/10/03 08:19:21;;;;;;;3.03;1.20;;;;;;;;;;5013475;28;20637;-67
2023/10/03 08:21:48;;;;;;;7.75;1.67;;;;;;;;;;5011341;28;20178;-66
2023/10/03 08:24:14;;;;;;;5.38;1.17;;;;;;;;;;5013153;28;20182;-66
2023/10/03 08:26:46;;;;;;;7.05;1.02;;;;;;;;;;5011056;28;20547;-66
2023/10/03 08:29:11;;;;;;;4.15;0.75;;;;;;;;;;5010218;28;20213;-66
2023/10/03 08:31:38;;;;;;;2.35;1.42;;;;;;;;;;5002388;28;20175;-67
2023/10/03 08:34:04;;;;;;;3.42;1.05;;;;;;;;;;5009314;28;20638;-67
2023/10/03 08:36:31;;;;;;;13.10;1.60;;;;;;;;;;5010577;28;20191;-67
2023/10/03 08:39:12;;;;;;;7.45;1.45;;;;;;;;;;5013190;28;20929;-67
2023/10/03 08:41:47;;;;;;;7.43;1.30;;;;;;;;;;5012749;28;20183;-67
2023/10/03 08:44:12;;;;;;;2.10;0.90;;;;;;;;;;5007449;28;20604;-67
2023/10/03 08:46:42;;;;;;;5.70;1.00;;;;;;;;;;5016276;28;20269;-67
2023/10/03 08:49:09;;;;;;;4.50;0.80;;;;;;;;;;5012404;28;20218;-67
2023/10/03 08:51:35;;;;;;;7.93;1.15;;;;;;;;;;5012313;28;20552;-67
2023/10/03 08:54:09;;;;;;;2.38;0.73;;;;;;;;;;5015420;28;20175;-67
2023/10/03 08:56:35;;;;;;;4.00;0.60;;;;;;;;;;5019689;28;20167;-67
2023/10/03 08:59:01;;;;;;;1.40;0.57;;;;;;;;;;5013397;28;20296;-67
2023/10/03 09:01:26;;;;;;;1.15;0.30;;;;;;;;;;5011954;28;20186;-67
2023/10/03 09:03:58;;;;;;;0.77;0.43;;;;;;;;;;5013953;28;20650;-67
2023/10/03 09:06:26;;;;;;;1.23;0.38;;;;;;;;;;5011640;28;20350;-67
2023/10/03 09:09:07;;;;;;;1.83;0.47;;;;;;;;;;5015831;28;20210;-67
2023/10/03 09:11:36;;;;;;;1.40;0.20;;;;;;;;;;5009617;28;20642;-67
2023/10/03 09:14:01;;;;;;;0.10;0.10;;;;;;;;;;5010934;28;20517;-67
2023/10/03 09:16:26;;;;;;;0.50;0.30;;;;;;;;;;5011952;28;20270;-67
2023/10/03 09:18:56;;;;;;;0.60;0.40;;;;;;;;;;5017587;28;20305;-67
2023/10/03 09:21:25;;;;;;;1.35;0.43;;;;;;;;;;5015157;28;20197;-67
2023/10/03 09:24:09;;;;;;;2.25;0.57;;;;;;;;;;5014761;28;20186;-67
2023/10/03 09:26:47;;;;;;;1.38;0.40;;;;;;;;;;5010509;28;20221;-67
2023/10/03 09:29:32;;;;;;;3.40;0.40;;;;;;;;;;5019621;28;20293;-67
2023/10/03 09:31:58;;;;;;;1.35;0.50;;;;;;;;;;5019341;28;20199;-66
2023/10/03 09:34:30;;;;;;;3.45;0.60;;;;;;;;;;5017712;28;20277;-67
2023/10/03 09:36:56;;;;;;;2.75;0.55;;;;;;;;;;5012439;28;20198;-67
2023/10/03 09:39:21;;;;;;;1.90;0.40;;;;;;;;;;5034842;22;20234;-69
2023/10/03 09:41:55;;;;;;;4.32;0.50;;;;;;;;;;5030891;28;20180;-68
2023/10/03 09:44:29;;;;;;;2.38;0.43;;;;;;;;;;5028236;28;20288;-68
2023/10/03 09:46:55;;;;;;;1.30;0.47;;;;;;;;;;5024631;28;20265;-68
2023/10/03 09:49:26;;;;;;;2.83;0.43;;;;;;;;;;5018852;28;20202;-68
2023/10/03 09:51:51;;;;;;;5.15;0.70;;;;;;;;;;5008818;28;20175;-68
2023/10/03 09:54:30;;;;;;;4.38;0.50;;;;;;;;;;5008253;28;20182;-68
2023/10/03 09:56:57;;;;;;;2.53;0.73;;;;;;;;;;5011607;28;20190;-68
2023/10/03 09:59:27;;;;;;;2.22;0.57;;;;;;;;;;5010280;28;20207;-68
2023/10/03 10:01:55;;;;;;;1.10;0.45;;;;;;;;;;5009570;28;20186;-69
2023/10/03 10:04:21;;;;;;;3.90;0.50;;;;;;;;;;5011134;28;20244;-69
2023/10/03 10:06:47;;;;;;;2.70;0.20;;;;;;;;;;5011176;28;20181;-69
2023/10/03 10:09:23;;;;;;;1.40;0.57;;;;;;;;;;5010046;28;20211;-69
2023/10/03 10:12:07;;;;;;;3.53;0.70;;;;;;;;;;5008952;28;20174;-68
2023/10/03 10:14:52;;;;;;;3.03;0.88;;;;;;;;;;5010627;28;20232;-68
2023/10/03 10:17:19;;;;;;;1.50;0.50;;;;;;;;;;5011375;28;20272;-69
2023/10/03 10:20:05;;;;;;;1.63;0.50;;;;;;;;;;5009812;28;20202;-69
2023/10/03 10:22:49;;;;;;;5.00;0.75;;;;;;;;;;5010612;28;20697;-69
2023/10/03 10:25:27;;;;;;;1.85;0.77;;;;;;;;;;5010340;28;20210;-69
2023/10/03 10:28:05;;;;;;;1.20;0.50;;;;;;;;;;5009375;28;20171;-69
2023/10/03 10:30:34;;;;;;;1.95;0.73;;;;;;;;;;5008279;28;20179;-69
2023/10/03 10:33:14;;;;;;;1.80;0.63;;;;;;;;;;5009798;28;20198;-69
2023/10/03 10:36:12;;;;;;;3.83;0.68;;;;;;;;;;5009988;28;20201;-69
2023/10/03 10:38:37;;;;;;;3.03;0.47;;;;;;;;;;4991984;28;20309;-69
2023/10/03 10:41:11;;;;;;;1.70;0.50;;;;;;;;;;5010316;28;20265;-69
2023/10/03 10:43:55;;;;;;;2.80;0.65;;;;;;;;;;5010315;28;20213;-69
2023/10/03 10:46:31;;;;;;;1.55;0.68;;;;;;;;;;5009578;28;20229;-69
2023/10/03 10:48:56;;;;;;;3.78;0.70;;;;;;;;;;5008944;28;20209;-68
2023/10/03 10:51:21;;;;;;;3.72;0.70;;;;;;;;;;5004999;28;20174;-69
2023/10/03 10:53:47;;;;;;;3.92;1.55;;;;;;;;;;5012914;28;20171;-68
2023/10/03 10:56:13;;;;;;;6.28;1.33;;;;;;;;;;5009783;28;20179;-70
2023/10/03 10:58:51;;;;;;;3.60;0.88;;;;;;;;;;5013946;28;20198;-68
2023/10/03 11:01:20;;;;;;;2.00;0.80;;;;;;;;;;5009717;28;20206;-68
2023/10/03 11:03:46;;;;;;;4.82;1.02;;;;;;;;;;5012501;28;20258;-69
2023/10/03 11:06:15;;;;;;;4.38;0.88;;;;;;;;;;5014268;28;20290;-68
2023/10/03 11:08:44;;;;;;;5.10;1.15;;;;;;;;;;5011567;28;20232;-68
2023/10/03 11:11:09;;;;;;;5.90;1.20;;;;;;;;;;5013583;28;20175;-68
2023/10/03 11:13:43;;;;;;;8.65;2.25;;;;;;;;;;5014161;28;20182;-68
2023/10/03 11:16:08;;;;;;;4.43;1.33;;;;;;;;;;5014275;28;20547;-68
2023/10/03 11:18:35;;;;;;;2.75;1.13;;;;;;;;;;5013845;28;20289;-69
2023/10/03 11:21:04;;;;;;;5.35;1.70;;;;;;;;;;5014194;28;20190;-69
2023/10/03 11:23:29;;;;;;;2.13;1.10;;;;;;;;;;5012839;28;20258;-69
2023/10/03 11:25:58;;;;;;;4.88;1.50;;;;;;;;;;5014078;28;20270;-69
2023/10/03 11:28:30;;;;;;;6.07;1.58;;;;;;;;;;5010042;28;20582;-70
2023/10/03 11:31:01;;;;;;;4.85;1.80;;;;;;;;;;5013284;28;20214;-71
2023/10/03 11:33:27;;;;;;;4.07;1.20;;;;;;;;;;5013447;28;20528;-70
2023/10/03 11:35:52;;;;;;;9.40;1.98;;;;;;;;;;5014157;28;20202;-71
2023/10/03 11:38:18;;;;;;;7.13;1.80;;;;;;;;;;5012869;28;20553;-70
2023/10/03 11:40:44;;;;;;;4.32;1.70;;;;;;;;;;5010867;28;20198;-70
2023/10/03 11:43:10;;;;;;;6.80;1.55;;;;;;;;;;5013252;28;20265;-70
2023/10/03 11:45:36;;;;;;;6.38;1.52;;;;;;;;;;5013746;28;20258;-71
2023/10/03 11:48:11;;;;;;;4.88;1.65;;;;;;;;;;5014034;28;20209;-71
2023/10/03 11:50:40;;;;;;;6.80;1.77;;;;;;;;;;5014177;28;20210;-70
2023/10/03 11:53:08;;;;;;;9.95;2.10;;;;;;;;;;5008475;28;20181;-71
2023/10/03 11:55:34;;;;;;;3.92;1.85;;;;;;;;;;5012981;28;20192;-70
2023/10/03 11:58:01;;;;;;;10.57;2.22;;;;;;;;;;5012180;28;20234;-71
2023/10/03 12:00:28;;;;;;;6.88;2.03;;;;;;;;;;5011998;28;20270;-71
2023/10/03 12:02:53;;;;;;;5.95;1.70;;;;;;;;;;5012550;28;20174;-71
2023/10/03 12:05:20;;;;;;;6.68;1.80;;;;;;;;;;5013235;28;20194;-71
2023/10/03 12:07:49;;;;;;;7.80;1.80;;;;;;;;;;5013337;28;20183;-71
2023/10/03 12:10:15;;;;;;;3.60;1.50;;;;;;;;;;5010556;28;20194;-71
2023/10/03 12:12:40;;;;;;;4.78;1.90;;;;;;;;;;5012997;28;20186;-71
2023/10/03 12:15:12;;;;;;;3.45;1.30;;;;;;;;;;5013398;28;20321;-71
2023/10/03 12:17:37;;;;;;;5.32;1.92;;;;;;;;;;5012448;28;20167;-71
2023/10/03 12:20:03;;;;;;;8.35;1.75;;;;;;;;;;5012198;28;20206;-70
2023/10/03 12:22:28;;;;;;;4.80;1.60;;;;;;;;;;5012333;28;20183;-70
2023/10/03 12:24:53;;;;;;;8.65;2.13;;;;;;;;;;5013190;28;20926;-71
2023/10/03 12:27:19;;;;;;;8.07;1.90;;;;;;;;;;5014298;28;20179;-71
2023/10/03 12:29:44;;;;;;;7.85;1.77;;;;;;;;;;5014776;28;20210;-71
2023/10/03 12:32:10;;;;;;;10.45;2.45;;;;;;;;;;5011184;28;20676;-70
2023/10/03 12:34:35;;;;;;;7.95;2.15;;;;;;;;;;5015010;28;20176;-73
2023/10/03 12:37:04;;;;;;;7.88;1.60;;;;;;;;;;5015302;28;20700;-70
2023/10/03 12:39:31;;;;;;;7.20;1.95;;;;;;;;;;5014176;28;20221;-70
2023/10/03 12:41:56;;;;;;;8.15;1.83;;;;;;;;;;5014862;28;20171;-71
2023/10/03 12:44:21;;;;;;;9.82;2.00;;;;;;;;;;5014062;28;20207;-71
2023/10/03 12:46:46;;;;;;;9.25;2.15;;;;;;;;;;5013817;28;20217;-70
2023/10/03 12:49:11;;;;;;;7.40;1.90;;;;;;;;;;5010650;28;20658;-70
2023/10/03 12:51:37;;;;;;;12.07;2.85;;;;;;;;;;5004412;28;20171;-70
2023/10/03 12:54:05;;;;;;;10.80;2.03;;;;;;;;;;5008615;28;20179;-70
2023/10/03 12:56:30;;;;;;;6.97;1.92;;;;;;;;;;5014216;28;20171;-71
2023/10/03 12:58:57;;;;;;;6.38;1.55;;;;;;;;;;5013474;28;20708;-71
2023/10/03 13:01:22;;;;;;;3.10;1.40;;;;;;;;;;5011846;28;20202;-71
2023/10/03 13:03:47;;;;;;;4.88;1.65;;;;;;;;;;5012455;28;20552;-71
2023/10/03 13:06:14;;;;;;;6.22;1.73;;;;;;;;;;5012254;28;20206;-71
2023/10/03 13:08:42;;;;;;;8.75;1.85;;;;;;;;;;5012513;28;20666;-71
2023/10/03 13:11:07;;;;;;;4.60;1.40;;;;;;;;;;5012366;28;20233;-69
2023/10/03 13:13:32;;;;;;;4.82;1.48;;;;;;;;;;5013336;28;20179;-70
2023/10/03 13:15:57;;;;;;;4.07;1.40;;;;;;;;;;5012064;28;20179;-70
2023/10/03 13:18:23;;;;;;;3.97;1.40;;;;;;;;;;5010091;28;20661;-70
2023/10/03 13:20:49;;;;;;;4.47;1.40;;;;;;;;;;5012684;28;20627;-70
2023/10/03 13:23:14;;;;;;;4.10;1.33;;;;;;;;;;5013382;28;20198;-70
2023/10/03 13:25:39;;;;;;;4.90;1.85;;;;;;;;;;5012396;28;20552;-71
2023/10/03 13:28:10;;;;;;;6.15;1.33;;;;;;;;;;5011694;28;20550;-70
2023/10/03 13:30:35;;;;;;;6.70;1.13;;;;;;;;;;5009870;28;20513;-69
2023/10/03 13:33:01;;;;;;;2.40;1.08;;;;;;;;;;5008542;28;20229;-70
2023/10/03 13:35:27;;;;;;;3.58;1.38;;;;;;;;;;5012071;28;20674;-71
2023/10/03 13:37:54;;;;;;;4.75;1.60;;;;;;;;;;5011093;28;20662;-70
2023/10/03 13:40:20;;;;;;;2.67;1.58;;;;;;;;;;5010971;28;20207;-70
2023/10/03 13:42:47;;;;;;;6.35;1.92;;;;;;;;;;5012565;28;20178;-70
2023/10/03 13:45:13;;;;;;;3.45;1.30;;;;;;;;;;5012659;28;20211;-70
2023/10/03 13:47:38;;;;;;;6.78;2.28;;;;;;;;;;5013543;28;20175;-70
2023/10/03 13:50:04;;;;;;;5.22;1.55;;;;;;;;;;5010768;28;20214;-71
2023/10/03 13:52:29;;;;;;;5.53;1.33;;;;;;;;;;5016266;28;20635;-71
2023/10/03 13:54:59;;;;;;;3.15;1.42;;;;;;;;;;5010661;28;20262;-71
2023/10/03 13:57:26;;;;;;;5.38;1.48;;;;;;;;;;5011777;28;20177;-69
2023/10/03 13:59:52;;;;;;;5.78;1.63;;;;;;;;;;5010369;28;20237;-70
2023/10/03 14:02:22;;;;;;;4.85;1.75;;;;;;;;;;5021681;28;20266;-70
2023/10/03 14:04:47;;;;;;;5.85;1.60;;;;;;;;;;5010235;28;20270;-70
2023/10/03 14:07:13;;;;;;;4.97;1.88;;;;;;;;;;5010854;28;20274;-70
2023/10/03 14:09:39;;;;;;;9.55;1.73;;;;;;;;;;5011471;28;20716;-70
2023/10/03 14:12:05;;;;;;;5.45;1.50;;;;;;;;;;5007210;28;20681;-69
2023/10/03 14:14:32;;;;;;;6.85;1.63;;;;;;;;;;5009140;28;20179;-71
2023/10/03 14:17:00;;;;;;;3.20;1.55;;;;;;;;;;5009869;28;20666;-69
2023/10/03 14:19:26;;;;;;;3.40;1.58;;;;;;;;;;5011365;28;20195;-70
2023/10/03 14:21:52;;;;;;;3.15;1.15;;;;;;;;;;5011462;28;20179;-69
2023/10/03 14:24:17;;;;;;;6.85;1.77;;;;;;;;;;5009970;28;20190;-70
2023/10/03 14:26:42;;;;;;;5.25;1.88;;;;;;;;;;5011200;28;20619;-70
2023/10/03 14:29:07;;;;;;;4.50;1.42;;;;;;;;;;5010257;28;20780;-70
2023/10/03 14:31:33;;;;;;;4.18;1.75;;;;;;;;;;5008910;28;20178;-70
2023/10/03 14:33:58;;;;;;;4.35;1.67;;;;;;;;;;5010180;28;20551;-70
2023/10/03 14:36:23;;;;;;;5.40;1.80;;;;;;;;;;5010749;28;20170;-70
2023/10/03 14:38:50;;;;;;;2.38;1.17;;;;;;;;;;5011682;28;20273;-69